Archival Weather

Snohomish County (Paine Fld)

Everett, Washington (KPAE)

Report from: Tuesday, May 21, 2024 1:48 AM PDT
Current time: Saturday, June 22, 2024 2:13 AM PDT

Current weather – Weather history – Daily summaries
Weather forecast

Temperature11.0°C (51.8°F)
Dew point7.0°C (44.6°F)
Winds 3 kts (1.5 m/s, 3.5 mph) East-Southeast (120°)
Visibility10 mi. (16.1 km)
Clouds Ceiling: Overcast 2,900 ft. (884 m)
Altimeter30.20 in.Hg (1023 mB)
Relative humidity76 %
Density altitude-652 ft. (-199 m)
Remarks Fully automated report
Automated weather observing station with precipitation discriminator
Flight conditions Marginal Visual Meteorological Conditions
Raw dataKPAE 210848Z AUTO 12003KT 10SM OVC029 11/07 A3020 RMK AO2
An error has occurred. This application may no longer respond until reloaded. Reload 🗙